Flight Track Log - Related Links

Times and Time Zones

All times are in EDT time to prevent confusion due to time zone crossing. See the ASQ5065 flight status page for this flight to view local times or setup timezone preferences in your user account.

Time Position Orientation Groundspeed Altitude Reporting Facility
EDT Latitude Longitude Course Direction KTS MPH feet Rate Location/Type
Sun 03:41:04 PM 33.6500 -84.4833 287° West 190 219 2,200  Level Atlanta TRACON
Sun 03:42:04 PM 33.6667 -84.5500 281° West 262 302 3,600 2,050 Climbing Atlanta TRACON
Sun 03:43:04 PM 33.6833 -84.6500 280° West 274 315 6,300 2,385 Climbing Atlanta TRACON
Sun 03:44:40 PM 33.7042 -84.7956 281° West 282 325 9,800 1,808 Climbing Atlanta Center
Sun 03:45:40 PM 33.7203 -84.8956 279° West 292 336 11,000 1,100 Climbing Atlanta Center
Sun 03:46:40 PM 33.7361 -85.0106 280° West 331 381 12,000 1,050 Climbing Atlanta Center
Sun 03:47:40 PM 33.7539 -85.1306 280° West 365 420 13,100 1,050 Climbing Atlanta Center
Sun 03:48:40 PM 33.7717 -85.2533 283° West 377 434 14,100 1,000 Climbing Atlanta Center
Sun 03:49:40 PM 33.7953 -85.3811 281° West 387 445 15,100 900 Climbing Atlanta Center
Sun 03:50:40 PM 33.8147 -85.4989 281° West 392 451 15,900 950 Climbing Atlanta Center
Sun 03:51:40 PM 33.8361 -85.6294 290° West 392 451 17,000 1,050 Climbing Atlanta Center
Sun 03:52:40 PM 33.8742 -85.7578 292° West 397 457 18,000 1,000 Climbing Atlanta Center
Sun 03:53:40 PM 33.9181 -85.8911 291° West 396 456 19,000 950 Climbing Atlanta Center
Sun 03:54:40 PM 33.9578 -86.0172 289° West 396 456 19,900 900 Climbing Atlanta Center
Sun 03:55:40 PM 33.9953 -86.1458 289° West 396 456 20,800 850 Climbing Atlanta Center
Sun 03:56:40 PM 34.0328 -86.2772 289° West 408 470 21,600 800 Climbing Atlanta Center
Sun 03:57:40 PM 34.0700 -86.4086 289° West 413 475 22,400 800 Climbing Atlanta Center
Sun 03:58:40 PM 34.1069 -86.5375 288° West 413 475 23,200 750 Climbing Atlanta Center
Sun 03:59:40 PM 34.1381 -86.6564 289° West 408 470 23,900 750 Climbing Atlanta Center
Sun 04:00:40 PM 34.1747 -86.7831 288° West 408 470 24,700 846 Climbing Atlanta Center
Sun 04:02:09 PM 34.2317 -86.9983 290° West 440 506 26,000 765 Climbing Memphis Center
Sun 04:03:09 PM 34.2658 -87.1100 289° West 416 479 26,600 600 Climbing Memphis Center
Sun 04:04:09 PM 34.3047 -87.2494 289° West 401 461 27,200 550 Climbing Memphis Center
Sun 04:05:09 PM 34.3414 -87.3789 288° West 401 461 27,700 500 Climbing Memphis Center
Sun 04:06:09 PM 34.3758 -87.5111 289° West 407 468 28,200 500 Climbing Memphis Center
Sun 04:07:09 PM 34.4119 -87.6383 287° West 407 468 28,700 500 Climbing Memphis Center
Sun 04:08:09 PM 34.4461 -87.7706 288° West 412 474 29,200 500 Climbing Memphis Center
Sun 04:09:09 PM 34.4822 -87.9031 287° West 418 481 29,700 400 Climbing Memphis Center
Sun 04:10:09 PM 34.5139 -88.0331 288° West 418 481 30,000 150 Climbing Memphis Center
Sun 04:11:09 PM 34.5497 -88.1658 287° West 417 480 30,000  Level Memphis Center
Sun 04:12:09 PM 34.5833 -88.2961 288° West 433 498 30,000  Level Memphis Center
Sun 04:13:09 PM 34.6211 -88.4392 290° West 438 504 30,000  Level Memphis Center
Sun 04:14:09 PM 34.6583 -88.5669 286° West 427 491 30,000  Level Memphis Center
Sun 04:15:09 PM 34.6917 -88.7053 288° West 421 484 30,000  Level Memphis Center
Sun 04:16:09 PM 34.7289 -88.8436 287° West 426 490 30,000  Level Memphis Center
Sun 04:17:09 PM 34.7639 -88.9794 287° West 426 490 30,000  Level Memphis Center
Sun 04:18:09 PM 34.7986 -89.1178 287° West 426 490 30,000  Level Memphis Center
Sun 04:19:09 PM 34.8333 -89.2592 289° West 436 502 30,000  Level Memphis Center
Sun 04:20:09 PM 34.8744 -89.4078 288° West 436 502 30,000  Level Memphis Center
Sun 04:21:09 PM 34.9108 -89.5467 289° West 436 502 30,000  Level Memphis Center
Sun 04:22:09 PM 34.9514 -89.6883 286° West 436 502 30,000  Level Memphis Center
Sun 04:23:09 PM 34.9833 -89.8247 285° West 459 528 30,000  Level Memphis Center
Sun 04:24:09 PM 35.0150 -89.9667 308° West 446 513 30,000  Level Memphis Center
Sun 04:25:09 PM 35.0883 -90.0806 311° West 427 491 30,000  Level Memphis Center
Sun 04:26:09 PM 35.1761 -90.2022 313° West 428 493 30,000  Level Memphis Center
Sun 04:27:09 PM 35.2578 -90.3114 311° West 433 498 30,000  Level Memphis Center
Sun 04:28:09 PM 35.3369 -90.4233 312° West 433 498 30,000  Level Memphis Center
Sun 04:29:09 PM 35.4161 -90.5328 312° West 433 498 30,000  Level Memphis Center
Sun 04:30:09 PM 35.4953 -90.6400 311° West 432 497 30,000  Level Memphis Center
Sun 04:31:09 PM 35.5742 -90.7528 311° West 438 504 30,000  Level Memphis Center
Sun 04:32:09 PM 35.6531 -90.8628 310° West 438 504 30,000  Level Memphis Center
Sun 04:33:09 PM 35.7256 -90.9708 310° West 430 495 30,000  Level Memphis Center
Sun 04:34:09 PM 35.8019 -91.0814 312° West 425 489 30,000  Level Memphis Center
Sun 04:35:09 PM 35.8828 -91.1922 311° West 425 489 30,000  Level Memphis Center
Sun 04:36:09 PM 35.9611 -91.3033 312° West 425 489 30,000  Level Memphis Center
Sun 04:37:09 PM 36.0375 -91.4094 310° West 425 489 30,000 -150 Level Memphis Center
Sun 04:38:09 PM 36.1136 -91.5233 312° West 425 489 29,700 -650 Descending Memphis Center
Sun 04:39:09 PM 36.1958 -91.6353 310° West 430 495 28,700 -1,000 Descending Memphis Center
Sun 04:40:09 PM 36.2697 -91.7444 313° West 430 495 27,700 -1,000 Descending Memphis Center
Sun 04:41:09 PM 36.3519 -91.8542 311° West 430 495 26,700 -1,329 Descending Memphis Center
Sun 04:42:47 PM 36.4817 -92.0392 311° West 447 514 24,200 -1,709 Descending Kansas City Center
Sun 04:43:47 PM 36.5547 -92.1453 309° West 436 502 22,200 -2,000 Descending Kansas City Center
Sun 04:44:47 PM 36.6278 -92.2569 310° West 424 488 20,200 -2,000 Descending Kansas City Center
Sun 04:45:47 PM 36.7006 -92.3636 311° West 413 475 18,200 -2,000 Descending Kansas City Center
Sun 04:46:47 PM 36.7714 -92.4653 310° West 408 470 16,200 -1,050 Descending Kansas City Center
Sun 04:47:47 PM 36.8356 -92.5597 310° West 393 452 16,100 -150 Descending Kansas City Center
Sun 04:48:47 PM 36.8975 -92.6517 310° West 365 420 15,900 -1,150 Descending Kansas City Center
Sun 04:49:47 PM 36.9594 -92.7439 312° West 350 403 13,800 -2,150 Descending Kansas City Center
Sun 04:50:47 PM 37.0211 -92.8308 310° West 344 396 11,600 -1,785 Descending Kansas City Center
Sun 04:51:48 PM 37.0786 -92.9181 311° West 344 396 10,200 -1,400 Descending Kansas City Center
Sun 04:52:47 PM 37.1297 -92.9925 309° West 316 364 8,800 -1,462 Descending Kansas City Center
Sun 04:53:47 PM 37.1786 -93.0672 309° West 291 335 7,300 -1,500 Descending Kansas City Center
Sun 04:54:47 PM 37.2275 -93.1444 302° West 286 329 5,800 -1,500 Descending Kansas City Center
Sun 04:55:47 PM 37.2681 -93.2247 300° West 281 323 4,300 -1,000 Descending Kansas City Center
Sun 04:56:47 PM 37.3000 -93.2947 282° West 257 296 3,800 -600 Descending Kansas City Center
Sun 04:57:47 PM 37.3111 -93.3622 261° West 224 258 3,100 -650 Descending Kansas City Center
Sun 04:58:47 PM 37.3053 -93.4094 184° South 194 223 2,500 -700 Descending Kansas City Center
Sun 04:59:47 PM 37.2678 -93.4125 189° South 104 120 1,700 -600 Descending Kansas City Center
Sun 05:00:47 PM 37.2408 -93.4181 203° Southwest 94 108 1,300 7,150 Descending Kansas City Center
Sun 05:01:47 PM 37.2158 -93.4317 66° East 94 108 16,000 14,700 Climbing Kansas City Center
Sun 05:09:32 PM 37.2333 -93.3833 66° East  Level FlightAware Approximate

Login

Don't have an account? Register now (free) for customized features, flight alerts, and more!